Terminal Aerodrome Forecast
Issued by NWS Portland, OR

Home | Current Version | Previous Version | Text Only | Print | Product List | Glossary On
Versions: 1 2 3 4 5 6 7 8 9 10 11 12 13 14 15 16
000
FTUS46 KPQR 221122
TAFAST
TAF
KAST 221122Z 2212/2312 25004KT P6SM VCSH SCT025 BKN050
      TEMPO 2212/2216 2SM BR BKN025 BKN050
     FM221800 29006KT P6SM -SHRA SCT030 BKN050 BKN100=

USA.gov is the U.S. government's official web portal to all federal, state and local government web resources and services.